Atmore, Alabama
Current Conditions -  °F | °C
As of 9:56 PM on Tuesday 25 Nov 2014 (Local Time) from KNSE Reporting Station
Overcast Overcast  
Wind Chill: 51°   Ceiling: 11000
Heat Index: 51°   Visibility: 10mi
Dew Point: 35°   Wind: 7mph
Humidity: 54%   Direction: 330°NNW
Pressure: 30.1"   Gusts: NA
Location:  31.03°N, 87.49°W
Report Text: KNSE 260356Z 33006KT 10SM BKN110 OVC200 11/02 A3010 RMK AO2 SLP179 T01060017 $
Loading
Personal Weather Stations






























Interactive Weather Map New forecast layout! Learn more

10-Day Weather Forecast

Advertisements
Track Severe Weather on mobile